Latest Weather Observations for Norseman Airport

IDW60801

Issued at 9:03 pm WST Monday 20 February 2017 (issued every 30 minutes, with the page automatically refreshed every 10 minutes)

About weather observations | Map of weather stations | Latest weather observations for WA | Other Formats
Station Details ID: 012009 Name: NORSEMAN AERO Lat: -32.21 Lon: 121.75 Height: 262.5 m
Data from the previous 72 hours. | See also: Recent months at Norseman Airport
Date/Time
WST
Temp
°C
App
Temp
°C
Dew
Point
°C
Rel
Hum
%
Delta-T
°C
Wind Press
QNH
hPa
Press
MSL
hPa
Rain since
9am
mm
Dir  Spd
km/h
Gust
km/h
Spd
kts
Gust
kts
20/09:00pm 20.9 23.9 20.9 100 0.0 NE 6 9 3 5 1009.3 1008.0 1.0
20/08:30pm 20.8 23.2 20.8 100 0.0 S 9 13 5 7 1009.4 1008.1 0.8
20/08:06pm 21.9 21.6 19.6 87 1.5 WSW 20 35 11 19 1009.9 1008.6 0.6
20/08:00pm 21.6 22.0 19.0 85 1.7 SE 15 24 8 13 1008.7 1007.4 0.6
20/07:30pm 21.6 23.3 19.3 87 1.5 E 9 15 5 8 1008.7 1007.4 0.6
20/07:00pm 21.5 22.8 19.4 88 1.4 ESE 11 19 6 10 1008.3 1006.9 0.6
20/06:30pm 21.4 21.5 20.0 92 0.9 SSE 19 24 10 13 1008.1 1006.7 0.6
20/06:00pm 24.0 23.3 18.2 70 3.7 SSW 19 37 10 20 1009.1 1007.8 0.0
20/05:30pm 24.3 23.6 18.2 68 3.9 S 19 32 10 17 1007.9 1006.5 0.0
20/05:00pm 23.8 19.9 18.7 73 3.3 SSW 37 57 20 31 1008.9 1007.6 0.0
20/04:30pm 26.4 22.6 15.8 52 6.5 SSW 30 52 16 28 1008.8 1007.5 0.0
20/04:16pm 27.6 23.9 15.9 49 7.3 S 30 52 16 28 1007.7 1006.3 0.0
20/04:08pm 29.6 26.8 15.3 41 8.9 NNE 24 52 13 28 1007.7 1006.3 0.0
20/04:00pm 35.0 30.0 10.8 23 14.4 NNE 28 35 15 19 1006.3 1005.0 0.0
20/03:30pm 35.4 29.7 11.1 23 14.5 NNE 32 44 17 24 1006.2 1004.9 0.0
20/03:00pm 35.9 30.9 10.9 22 14.9 N 28 39 15 21 1006.4 1005.1 0.0
20/02:30pm 37.3 33.0 10.6 20 15.9 NNE 24 35 13 19 1006.8 1005.5 0.0
20/02:00pm 36.5 32.7 11.3 22 15.1 N 22 37 12 20 1008.0 1006.6 0.0
20/01:30pm 36.5 31.8 10.6 21 15.4 N 26 41 14 22 1008.7 1007.4 0.0
20/01:00pm 35.9 30.7 10.2 21 15.1 NNE 28 41 15 22 1009.1 1007.8 0.0
20/12:30pm 34.6 30.0 9.8 22 14.4 N 24 33 13 18 1009.6 1008.3 0.0
20/12:00pm 33.5 29.1 8.9 22 14.1 N 22 30 12 16 1010.3 1009.0 0.0
20/11:30am 33.3 28.6 9.4 23 13.7 NNE 24 37 13 20 1010.9 1009.6 0.0
20/11:00am 31.9 26.9 9.4 25 12.9 N 26 35 14 19 1011.7 1010.3 0.0
20/10:30am 30.7 25.2 9.0 26 12.2 N 28 37 15 20 1012.3 1011.0 0.0
20/10:00am 29.5 23.3 8.0 26 11.9 N 30 37 16 20 1012.7 1011.4 0.0
20/09:30am 28.0 21.5 8.3 29 10.8 N 32 41 17 22 1013.0 1011.7 0.0
20/09:00am 26.9 20.3 8.4 31 10.1 N 33 43 18 23 1013.2 1011.9 0.0
20/08:30am 25.0 18.2 7.6 33 9.3 N 33 41 18 22 1013.4 1012.1 0.0
20/08:00am 23.8 17.0 7.0 34 8.8 N 32 39 17 21 1013.7 1012.4 0.0
20/07:30am 23.0 17.4 8.7 40 7.7 N 28 35 15 19 1014.0 1012.7 0.0
20/07:00am 21.6 17.2 8.8 44 6.9 N 22 28 12 15 1014.0 1012.7 0.0
20/06:30am 19.4 16.6 10.1 55 5.0 N 15 17 8 9 1014.0 1012.7 0.0
20/06:00am 19.0 15.7 9.5 54 5.1 N 17 19 9 10 1014.1 1012.8 0.0
20/05:30am 18.9 15.2 9.4 54 5.1 N 19 20 10 11 1014.1 1012.8 0.0
20/05:00am 19.3 15.5 9.2 52 5.4 N 19 22 10 12 1014.0 1012.7 0.0
20/04:30am 19.2 15.1 8.5 50 5.6 N 20 22 11 12 1013.5 1012.2 0.0
20/04:00am 19.7 16.0 7.8 46 6.2 NNE 17 22 9 12 1013.4 1012.1 0.0
20/03:30am 20.0 15.6 7.4 44 6.5 N 20 24 11 13 1013.4 1012.1 0.0
20/03:00am 20.3 15.9 7.3 43 6.7 N 20 24 11 13 1013.6 1012.3 0.0
20/02:30am 19.3 15.7 8.3 49 5.8 N 17 19 9 10 1013.6 1012.3 0.0
20/02:00am 19.3 16.4 8.3 49 5.8 N 13 15 7 8 1013.8 1012.5 0.0
20/01:30am 19.8 17.0 8.5 48 6.0 NNE 13 17 7 9 1013.9 1012.6 0.0
20/01:00am 19.6 16.9 8.9 50 5.7 NNE 13 17 7 9 1014.3 1013.0 0.0
20/12:30am 19.9 17.1 8.6 48 6.0 N 13 17 7 9 1014.4 1013.1 0.0
20/12:00am 21.4 18.4 7.6 41 7.2 NNE 13 17 7 9 1014.4 1013.1 0.0
 
Date/Time
WST
Temp
°C
App
Temp
°C
Dew
Point
°C
Rel
Hum
%
Delta-T
°C
Wind Press
QNH
hPa
Press
MSL
hPa
Rain since
9am
mm
Dir  Spd
km/h
Gust
km/h
Spd
kts
Gust
kts
19/11:30pm 20.7 18.7 8.7 46 6.4 NE 9 11 5 6 1014.3 1013.0 0.0
19/11:00pm 19.6 18.0 10.3 55 5.1 NE 9 11 5 6 1014.7 1013.4 0.0
19/10:30pm 18.8 17.6 9.6 55 4.9 NNE 6 6 3 3 1014.7 1013.4 0.0
19/10:00pm 19.6 19.6 9.8 53 5.3 CALM 0 0 0 0 1015.0 1013.7 0.0
19/09:30pm 19.8 19.9 10.0 53 5.3 CALM 0 0 0 0 1015.4 1014.1 0.0
19/09:00pm 21.0 19.5 9.3 47 6.3 NE 7 11 4 6 1015.4 1014.1 0.0
19/08:30pm 21.4 19.6 9.3 46 6.5 NE 9 9 5 5 1015.4 1014.1 0.0
19/08:00pm 22.2 21.5 10.0 46 6.7 ENE 4 7 2 4 1015.5 1014.2 0.0
19/07:30pm 24.5 23.0 9.3 38 8.4 NE 7 9 4 5 1015.3 1013.9 0.0
19/07:00pm 26.3 24.5 9.6 35 9.3 NNE 9 11 5 6 1015.2 1013.8 0.0
19/06:30pm 28.3 25.9 10.0 32 10.4 N 13 17 7 9 1015.0 1013.7 0.0
19/06:00pm 29.2 26.8 8.8 28 11.4 N 11 17 6 9 1014.8 1013.5 0.0
19/05:30pm 29.6 27.7 9.2 28 11.5 N 9 15 5 8 1014.9 1013.6 0.0
19/05:00pm 29.8 27.3 8.2 26 12.0 NNE 11 19 6 10 1015.0 1013.7 0.0
19/04:30pm 30.1 28.6 9.1 27 11.8 N 7 15 4 8 1015.2 1013.8 0.0
19/04:00pm 29.9 27.6 8.9 27 11.8 N 11 19 6 10 1015.5 1014.2 0.0
19/03:30pm 29.7 27.1 9.3 28 11.5 NNW 13 20 7 11 1015.7 1014.4 0.0
19/03:00pm 29.5 27.6 9.1 28 11.5 NNW 9 17 5 9 1015.9 1014.6 0.0
19/02:30pm 29.0 26.2 8.7 28 11.3 N 13 20 7 11 1016.3 1015.0 0.0
19/02:00pm 28.7 25.2 8.9 29 11.0 NNE 17 32 9 17 1016.7 1015.4 0.0
19/01:30pm 27.9 24.4 8.7 30 10.6 N 17 24 9 13 1017.0 1015.7 0.0
19/01:00pm 28.0 24.4 9.8 32 10.3 N 19 24 10 13 1017.6 1016.3 0.0
19/12:30pm 26.5 22.7 8.9 33 9.7 N 19 28 10 15 1018.2 1016.9 0.0
19/12:00pm 25.9 21.7 9.7 36 9.0 N 22 32 12 17 1018.6 1017.3 0.0
19/11:30am 25.1 20.8 9.4 37 8.7 N 22 30 12 16 1019.2 1017.9 0.0
19/11:00am 23.8 19.1 9.4 40 7.9 N 24 32 13 17 1019.7 1018.4 0.0
19/10:30am 22.6 17.6 9.7 44 7.1 N 26 35 14 19 1020.2 1018.9 0.0
19/10:00am 21.9 17.0 9.8 46 6.6 N 26 33 14 18 1020.5 1019.2 0.0
19/09:30am 21.3 16.5 10.2 49 6.1 N 26 32 14 17 1021.0 1019.7 0.0
19/09:00am 19.6 15.8 9.8 53 5.3 NNE 20 28 11 15 1021.2 1019.9 0.0
19/08:30am 18.4 13.9 10.0 58 4.5 NNE 24 32 13 17 1021.7 1020.4 0.0
19/08:00am 17.2 12.3 9.9 62 3.9 NNE 26 32 14 17 1021.8 1020.5 0.0
19/07:30am 16.1 11.2 9.8 66 3.3 NNE 26 32 14 17 1022.3 1021.1 0.0
19/07:00am 15.3 11.1 9.9 70 2.8 NNE 22 32 12 17 1022.3 1021.1 0.0
19/06:30am 14.2 11.2 9.4 73 2.5 NE 15 20 8 11 1021.9 1020.6 0.0
19/06:00am 13.2 10.5 9.1 76 2.1 NNE 13 19 7 10 1021.9 1020.6 0.0
19/05:30am 13.0 9.9 8.9 76 2.1 NE 15 20 8 11 1021.8 1020.5 0.0
19/05:00am 13.4 10.3 8.9 74 2.3 NE 15 19 8 10 1021.7 1020.4 0.0
19/04:30am 13.6 10.1 8.9 73 2.4 NE 17 20 9 11 1021.7 1020.4 0.0
19/04:00am 13.9 11.1 8.7 71 2.6 NE 13 17 7 9 1021.5 1020.2 0.0
19/03:30am 14.1 11.0 8.7 70 2.8 NE 15 20 8 11 1021.5 1020.2 0.0
19/03:00am 14.3 11.5 8.7 69 2.9 ENE 13 20 7 11 1021.4 1020.1 0.0
19/02:30am 14.7 12.4 8.9 68 3.0 ENE 11 15 6 8 1021.5 1020.2 0.0
19/02:00am 15.1 12.4 8.8 66 3.2 ENE 13 17 7 9 1021.6 1020.3 0.0
19/01:30am 15.6 13.2 8.8 64 3.5 ENE 11 17 6 9 1021.7 1020.4 0.0
19/01:00am 16.0 13.6 8.5 61 3.9 ENE 11 17 6 9 1021.8 1020.5 0.0
19/12:30am 16.7 13.9 8.4 58 4.3 ENE 13 19 7 10 1022.2 1021.0 0.0
19/12:00am 17.3 14.5 8.4 56 4.6 ENE 13 22 7 12 1022.0 1020.7 0.0
 
Date/Time
WST
Temp
°C
App
Temp
°C
Dew
Point
°C
Rel
Hum
%
Delta-T
°C
Wind Press
QNH
hPa
Press
MSL
hPa
Rain since
9am
mm
Dir  Spd
km/h
Gust
km/h
Spd
kts
Gust
kts
18/11:30pm 18.0 14.8 8.3 53 5.0 E 15 35 8 19 1022.0 1020.7 0.0
18/11:00pm 18.6 14.5 8.6 52 5.2 E 20 32 11 17 1021.7 1020.4 0.0
18/10:30pm 19.5 15.0 8.5 49 5.8 E 22 32 12 17 1021.8 1020.5 0.0
18/10:00pm 20.4 16.9 8.7 47 6.2 E 17 26 9 14 1022.0 1020.7 0.0
18/09:30pm 21.1 17.2 8.7 45 6.6 ESE 19 24 10 13 1022.0 1020.7 0.0
18/09:00pm 21.8 18.1 8.0 41 7.3 ESE 17 24 9 13 1021.9 1020.6 0.0
18/08:30pm 22.6 19.7 8.0 39 7.8 SE 13 20 7 11 1021.6 1020.3 0.0
18/08:00pm 22.8 20.3 8.1 39 7.8 SE 11 15 6 8 1021.6 1020.3 0.0
18/07:30pm 23.5 21.3 8.0 37 8.3 SE 9 17 5 9 1021.4 1020.1 0.0
18/07:00pm 24.5 22.0 8.0 35 8.8 SE 11 17 6 9 1021.3 1020.0 0.0
18/06:30pm 25.7 23.2 8.2 33 9.5 ESE 11 17 6 9 1021.0 1019.7 0.0
18/06:00pm 26.5 22.8 8.0 31 10.0 SE 17 30 9 16 1020.8 1019.5 0.0
18/05:30pm 27.4 24.7 8.8 31 10.3 ESE 13 20 7 11 1020.7 1019.4 0.0
18/05:00pm 27.7 25.2 8.1 29 10.7 ESE 11 20 6 11 1020.8 1019.5 0.0
18/04:30pm 27.7 24.4 8.1 29 10.7 E 15 24 8 13 1020.7 1019.4 0.0
18/04:00pm 27.5 24.5 7.9 29 10.7 SE 13 24 7 13 1020.7 1019.4 0.0
18/03:30pm 27.7 24.0 8.1 29 10.7 SE 17 28 9 15 1020.8 1019.5 0.0
18/03:00pm 27.8 24.5 8.1 29 10.8 ESE 15 26 8 14 1021.0 1019.7 0.0
18/02:30pm 27.1 23.5 8.5 31 10.2 E 17 28 9 15 1021.3 1020.0 0.0
18/02:00pm 27.0 24.0 7.5 29 10.5 ESE 13 26 7 14 1021.7 1020.4 0.0
18/01:30pm 26.7 23.5 6.7 28 10.6 E 13 28 7 15 1022.1 1020.9 0.0
18/01:00pm 26.2 22.5 6.3 28 10.4 SE 15 20 8 11 1022.5 1021.3 0.0
18/12:30pm 25.0 20.6 4.7 27 10.3 SE 17 24 9 13 1022.9 1021.7 0.0
18/12:00pm 24.8 21.4 6.1 30 9.7 ESE 13 24 7 13 1023.4 1022.1 0.0
18/11:30am 24.1 21.0 7.3 34 8.9 E 13 24 7 13 1023.7 1022.4 0.0
18/11:00am 22.9 19.8 7.4 37 8.1 ESE 13 20 7 11 1024.1 1022.8 0.0
18/10:30am 21.6 19.5 8.1 42 7.1 E 9 22 5 12 1024.5 1023.2 0.0
18/10:00am 20.3 17.4 9.5 50 5.8 NNE 15 26 8 14 1024.7 1023.4 0.0
18/09:30am 19.5 16.8 9.1 51 5.5 ENE 13 20 7 11 1025.1 1023.8 0.0
18/09:00am 18.5 16.2 10.6 60 4.3 NE 13 19 7 10 1025.3 1024.0 0.0
18/08:30am 17.4 15.1 10.5 64 3.7 E 13 22 7 12 1025.6 1024.4 0.0
18/08:00am 16.1 12.9 10.0 67 3.2 ENE 17 26 9 14 1025.6 1024.4 0.0
18/07:30am 15.1 11.8 9.7 70 2.8 ENE 17 24 9 13 1025.5 1024.3 0.0
18/07:00am 14.1 11.2 9.7 75 2.3 E 15 20 8 11 1025.4 1024.1 0.0
18/06:30am 12.9 11.1 9.5 80 1.8 E 9 15 5 8 1025.1 1023.8 0.0
18/06:00am 11.5 10.2 9.2 86 1.2 ENE 6 9 3 5 1024.9 1023.6 0.0
18/05:30am 11.4 9.9 9.1 86 1.2 E 7 9 4 5 1024.7 1023.4 0.0
18/05:00am 11.6 11.1 9.2 85 1.2 SSE 2 9 1 5 1024.3 1023.0 0.0
18/04:30am 11.8 11.6 9.0 83 1.4 CALM 0 6 0 3 1023.9 1022.6 0.0
18/04:00am 12.1 10.8 9.3 83 1.4 ESE 6 9 3 5 1023.7 1022.4 0.0
18/03:30am 12.4 10.9 9.2 81 1.6 ESE 7 13 4 7 1023.8 1022.5 0.0
18/03:00am 12.7 10.9 9.3 80 1.7 ESE 9 13 5 7 1023.9 1022.6 0.0
18/02:30am 13.0 11.2 9.4 79 1.9 SE 9 15 5 8 1023.8 1022.5 0.0
18/02:00am 13.2 11.8 9.5 78 1.9 SE 7 13 4 7 1023.7 1022.4 0.0
18/01:30am 13.6 11.8 9.6 77 2.1 SE 9 11 5 6 1023.7 1022.4 0.0
18/01:00am 14.0 11.9 9.6 75 2.3 SE 11 20 6 11 1023.7 1022.4 0.0
18/12:30am 14.6 12.5 9.8 73 2.5 SSE 11 19 6 10 1023.6 1022.3 0.0
18/12:00am 15.1 12.3 10.1 72 2.6 SE 15 24 8 13 1023.4 1022.1 0.0
 
Date/Time
WST
Temp
°C
App
Temp
°C
Dew
Point
°C
Rel
Hum
%
Delta-T
°C
Wind Press
QNH
hPa
Press
MSL
hPa
Rain since
9am
mm
Dir  Spd
km/h
Gust
km/h
Spd
kts
Gust
kts
17/11:30pm 15.5 13.9 10.1 70 2.9 SE 9 15 5 8 1023.3 1022.0 0.0
17/11:00pm 16.2 13.9 10.3 68 3.1 SSE 13 20 7 11 1023.2 1021.9 0.0
17/10:30pm 17.0 14.3 10.4 65 3.6 SSE 15 24 8 13 1022.8 1021.6 0.0
17/10:00pm 17.8 14.9 10.9 64 3.8 SSE 17 22 9 12 1022.7 1021.5 0.0
17/09:30pm 18.7 15.9 11.3 62 4.1 SSE 17 24 9 13 1022.4 1021.2 0.0

Other Formats:

Comma delimited format used in spreadsheet applications
http://www.bom.gov.au/fwo/IDW60801/IDW60801.95642.axf

JavaScript Object Notation format (JSON) in row-major order
http://www.bom.gov.au/fwo/IDW60801/IDW60801.95642.json